Schwarzach Heliport LOSS

Flugplatz Daten

Name: Schwarzach Heliport

Ident: LOSS

Lat: 47,32444382

Long: 13,15499973

Platzhöhe: 2046 ft

IataCode:

City: Schwarzach

Metar

2021/12/01 00:30
RJSA 010030Z 22011KT 9999 -SHRA FEW015 SCT025 BKN035 11/10 Q0993 RMK 1CU015 3CU025 7CU035 A2934 WS 20KT LOSS OBS AT 0000Z 15NM NE RJSA 3500FT E175

Taf

Gewünschte Webcam nicht vorhanden? Dann fügen Sie eine hinzu. Sie wird dann so schnell wie möglich freigeschaltet
Url: Title: